createdAt,value
2018-08-12T00:02:18.034Z,98.40
2018-08-12T00:04:46.185Z,98.60
2018-08-12T00:07:14.346Z,98.60
2018-08-12T00:09:42.487Z,98.40
2018-08-12T00:12:10.651Z,98.30
2018-08-12T00:14:38.770Z,98.20
2018-08-12T00:17:06.895Z,98.10
2018-08-12T00:19:35.045Z,97.90
2018-08-12T00:22:03.244Z,98.00
2018-08-12T00:24:31.389Z,98.20
2018-08-12T00:26:59.561Z,98.00
2018-08-12T00:29:27.719Z,98.00
2018-08-12T00:31:55.852Z,98.10
2018-08-12T00:34:23.981Z,97.90
2018-08-12T00:36:52.117Z,98.00
2018-08-12T00:39:20.295Z,98.00
2018-08-12T00:41:48.438Z,97.90
2018-08-12T00:44:16.604Z,98.00
2018-08-12T00:46:45.580Z,98.00
2018-08-12T00:49:13.717Z,98.20
2018-08-12T00:51:41.844Z,98.50
2018-08-12T00:54:10.001Z,98.70
2018-08-12T00:56:38.129Z,98.90
2018-08-12T00:59:06.304Z,99.00
2018-08-12T01:01:34.406Z,98.90
2018-08-12T01:04:02.560Z,98.70
2018-08-12T01:06:30.712Z,98.60
2018-08-12T01:08:58.847Z,98.40
2018-08-12T01:11:27.000Z,98.30
2018-08-12T01:13:55.136Z,98.20
2018-08-12T01:16:23.265Z,98.40
2018-08-12T01:18:51.400Z,98.40
2018-08-12T01:21:19.538Z,98.40
2018-08-12T01:23:47.695Z,98.50
2018-08-12T01:26:15.988Z,98.30
2018-08-12T01:28:44.187Z,98.10
2018-08-12T01:31:12.328Z,98.30
2018-08-12T01:33:40.479Z,98.30
2018-08-12T01:36:08.642Z,98.10
2018-08-12T01:38:36.866Z,98.00
2018-08-12T01:41:05.013Z,97.90
2018-08-12T01:43:33.185Z,97.80
2018-08-12T01:46:01.336Z,97.80
2018-08-12T01:48:29.468Z,97.80
2018-08-12T01:50:57.649Z,97.60
2018-08-12T01:53:25.787Z,97.60
2018-08-12T01:55:53.928Z,97.60
2018-08-12T01:58:22.081Z,97.70
2018-08-12T02:00:50.240Z,97.90
2018-08-12T02:03:18.408Z,98.10
2018-08-12T02:05:46.575Z,98.30
2018-08-12T02:08:14.745Z,98.10
2018-08-12T02:10:42.870Z,98.00
2018-08-12T02:13:11.018Z,98.10
2018-08-12T02:15:39.144Z,97.90
2018-08-12T02:18:07.308Z,97.90
2018-08-12T02:20:35.447Z,97.80
2018-08-12T02:23:03.593Z,97.70
2018-08-12T02:25:31.827Z,97.70
2018-08-12T02:28:00.000Z,97.90
2018-08-12T02:30:28.143Z,98.20
2018-08-12T02:32:56.309Z,98.50
2018-08-12T02:35:24.466Z,98.70
2018-08-12T02:37:52.612Z,98.90
2018-08-12T02:40:20.751Z,99.10
2018-08-12T02:42:48.893Z,99.20
2018-08-12T02:45:17.061Z,99.20
2018-08-12T02:47:45.209Z,98.90
2018-08-12T02:50:13.399Z,98.80
2018-08-12T02:52:41.530Z,98.80
2018-08-12T02:55:10.351Z,98.70
2018-08-12T02:57:38.505Z,98.50
2018-08-12T03:00:07.851Z,98.50
2018-08-12T03:02:36.005Z,98.30
2018-08-12T03:05:04.457Z,98.20
2018-08-12T03:07:32.788Z,98.30
2018-08-12T03:10:00.946Z,98.20
2018-08-12T03:12:29.079Z,97.90
2018-08-12T03:14:57.236Z,97.80
2018-08-12T03:17:25.372Z,97.90
2018-08-12T03:19:53.603Z,98.00
2018-08-12T03:22:21.750Z,97.80
2018-08-12T03:24:49.877Z,98.10
2018-08-12T03:27:18.008Z,97.80
2018-08-12T03:29:46.161Z,98.10
2018-08-12T03:32:14.429Z,98.40
2018-08-12T03:34:42.564Z,98.40
2018-08-12T03:37:10.715Z,98.70
2018-08-12T03:39:38.891Z,98.80
2018-08-12T03:42:07.028Z,99.10
2018-08-12T03:44:35.175Z,98.80
2018-08-12T03:47:03.309Z,99.00
2018-08-12T03:49:31.448Z,98.80
2018-08-12T03:52:06.200Z,99.00
2018-08-12T03:54:34.328Z,99.00
2018-08-12T03:57:02.475Z,98.90
2018-08-12T03:59:30.608Z,98.90
2018-08-12T04:01:58.740Z,98.80
2018-08-12T04:04:26.895Z,98.90
2018-08-12T04:06:55.046Z,99.00
2018-08-12T04:09:23.208Z,99.30
2018-08-12T04:11:51.335Z,99.40
2018-08-12T04:14:19.465Z,99.30
2018-08-12T04:16:53.204Z,99.20
2018-08-12T04:19:21.339Z,99.00
2018-08-12T04:24:42.610Z,99.40
2018-08-12T04:27:10.737Z,99.40
2018-08-12T04:29:38.916Z,99.40
2018-08-12T04:32:07.290Z,99.50
2018-08-12T04:34:35.464Z,99.60
2018-08-12T04:37:03.739Z,99.80
2018-08-12T04:39:31.897Z,99.80
2018-08-12T04:42:00.058Z,99.70
2018-08-12T04:44:28.183Z,99.80
2018-08-12T04:46:56.360Z,99.90
2018-08-12T04:49:24.481Z,99.90
2018-08-12T04:51:52.628Z,99.90
2018-08-12T04:54:20.763Z,99.90
2018-08-12T04:56:48.912Z,99.90
2018-08-12T04:59:17.048Z,99.90
2018-08-12T05:01:45.201Z,99.90
2018-08-12T05:04:13.415Z,99.90
2018-08-12T05:06:41.559Z,99.80
2018-08-12T05:09:10.927Z,99.90
2018-08-12T05:11:39.420Z,99.90
2018-08-12T05:14:07.563Z,99.90
2018-08-12T05:16:35.702Z,99.90
2018-08-12T05:19:03.983Z,99.90
2018-08-12T05:21:32.147Z,99.90
2018-08-12T05:24:00.323Z,99.90
2018-08-12T05:26:28.491Z,99.90
2018-08-12T05:28:56.663Z,99.90
2018-08-12T05:31:24.832Z,99.90
2018-08-12T05:33:53.180Z,99.90
2018-08-12T05:36:21.313Z,99.90
2018-08-12T05:38:49.444Z,99.90
2018-08-12T05:41:17.634Z,99.90
2018-08-12T05:43:45.794Z,99.90
2018-08-12T05:46:13.956Z,99.90
2018-08-12T05:48:42.112Z,99.90
2018-08-12T05:51:10.431Z,99.90
2018-08-12T05:53:38.444Z,99.90
2018-08-12T05:56:06.607Z,99.90
2018-08-12T05:58:34.746Z,99.90
2018-08-12T06:01:02.933Z,99.90
2018-08-12T06:03:31.094Z,99.90
2018-08-12T06:05:59.213Z,99.90
2018-08-12T06:08:27.345Z,99.90
2018-08-12T06:10:55.496Z,99.90
2018-08-12T06:13:23.632Z,99.90
2018-08-12T06:15:51.787Z,99.90
2018-08-12T06:18:19.925Z,99.90
2018-08-12T06:20:48.169Z,99.40
2018-08-12T06:23:16.312Z,98.70
2018-08-12T06:25:44.462Z,98.00
2018-08-12T06:28:12.611Z,97.60
2018-08-12T06:30:40.748Z,97.00
2018-08-12T06:33:08.908Z,97.30
2018-08-12T06:35:37.096Z,96.50
2018-08-12T06:38:05.672Z,95.10
2018-08-12T06:40:33.829Z,94.80
2018-08-12T06:43:01.968Z,94.70
2018-08-12T06:45:30.131Z,94.40
2018-08-12T06:47:58.261Z,94.90
2018-08-12T06:50:26.387Z,95.30
2018-08-12T06:52:54.549Z,94.70
2018-08-12T06:55:23.406Z,94.20
2018-08-12T06:57:51.595Z,94.60
2018-08-12T07:00:19.785Z,93.80
2018-08-12T07:02:48.032Z,94.10
2018-08-12T07:05:16.148Z,93.40
2018-08-12T07:07:44.404Z,93.00
2018-08-12T07:10:13.990Z,91.90
2018-08-12T07:12:42.259Z,90.80
2018-08-12T07:15:14.467Z,90.50
2018-08-12T07:17:43.774Z,90.80
2018-08-12T07:23:05.511Z,83.00
2018-08-12T07:25:33.649Z,80.50
2018-08-12T07:28:01.790Z,79.30
2018-08-12T07:30:29.950Z,77.80
2018-08-12T07:32:58.198Z,76.30
2018-08-12T07:35:26.927Z,75.30
2018-08-12T07:37:55.061Z,74.80
2018-08-12T07:40:23.191Z,75.60
2018-08-12T07:42:51.692Z,73.70
2018-08-12T07:45:19.873Z,73.30
2018-08-12T07:47:48.080Z,72.20
2018-08-12T07:50:16.261Z,72.70
2018-08-12T07:52:45.212Z,73.00
2018-08-12T07:55:14.000Z,72.30
2018-08-12T07:57:42.900Z,73.20
2018-08-12T08:00:14.419Z,73.30
2018-08-12T08:05:36.076Z,71.40
2018-08-12T08:08:04.249Z,72.80
2018-08-12T08:10:32.565Z,72.60
2018-08-12T08:13:00.760Z,72.30
2018-08-12T08:15:28.900Z,69.60
2018-08-12T08:17:57.043Z,69.30
2018-08-12T08:20:25.315Z,69.80
2018-08-12T08:22:53.509Z,70.40
2018-08-12T08:25:21.701Z,69.80
2018-08-12T08:27:49.811Z,69.50
2018-08-12T08:30:17.959Z,69.80
2018-08-12T08:32:46.132Z,69.10
2018-08-12T08:35:14.555Z,69.60
2018-08-12T08:37:43.282Z,69.20
2018-08-12T08:40:14.347Z,68.80
2018-08-12T08:42:42.495Z,67.60
2018-08-12T08:45:14.171Z,67.50
2018-08-12T08:47:43.175Z,66.80
2018-08-12T08:50:11.320Z,65.70
2018-08-12T08:52:39.547Z,66.80
2018-08-12T08:55:09.056Z,66.30
2018-08-12T08:57:37.279Z,67.00
2018-08-12T09:00:09.088Z,66.70
2018-08-12T09:02:37.241Z,66.40
2018-08-12T09:05:06.084Z,67.20
2018-08-12T09:07:34.204Z,66.70
2018-08-12T09:10:02.357Z,66.80
2018-08-12T09:12:30.551Z,66.70
2018-08-12T09:14:58.729Z,65.70
2018-08-12T09:17:26.857Z,66.60
2018-08-12T09:19:55.004Z,66.50
2018-08-12T09:22:23.251Z,66.90
2018-08-12T09:24:51.441Z,66.90
2018-08-12T09:27:19.569Z,66.70
2018-08-12T09:29:47.719Z,65.70
2018-08-12T09:32:15.854Z,65.80
2018-08-12T09:34:44.025Z,64.90
2018-08-12T09:37:12.161Z,64.90
2018-08-12T09:39:40.320Z,65.00
2018-08-12T09:42:08.492Z,64.80
2018-08-12T09:44:36.720Z,65.20
2018-08-12T09:47:04.902Z,64.50
2018-08-12T09:49:33.075Z,64.30
2018-08-12T09:52:01.220Z,64.60
2018-08-12T09:54:29.449Z,63.40
2018-08-12T09:56:57.567Z,63.50
2018-08-12T09:59:25.769Z,63.00
2018-08-12T10:01:53.915Z,62.10
2018-08-12T10:04:22.106Z,62.40
2018-08-12T10:06:50.284Z,62.40
2018-08-12T10:09:18.528Z,61.80
2018-08-12T10:11:46.788Z,62.40
2018-08-12T10:14:14.927Z,60.60
2018-08-12T10:16:43.089Z,61.80
2018-08-12T10:19:11.324Z,63.20
2018-08-12T10:21:39.555Z,60.70
2018-08-12T10:24:07.708Z,60.70
2018-08-12T10:26:35.976Z,59.50
2018-08-12T10:29:04.301Z,59.60
2018-08-12T10:31:32.487Z,59.90
2018-08-12T10:34:00.756Z,59.70
2018-08-12T10:36:28.890Z,58.10
2018-08-12T10:38:57.104Z,57.80
2018-08-12T10:41:25.277Z,57.10
2018-08-12T10:43:53.469Z,57.20
2018-08-12T10:46:21.608Z,57.50
2018-08-12T10:48:49.731Z,57.90
2018-08-12T10:51:17.876Z,56.60
2018-08-12T10:53:46.033Z,57.80
2018-08-12T10:56:14.218Z,57.00
2018-08-12T10:58:42.383Z,55.30
2018-08-12T11:01:10.524Z,56.10
2018-08-12T11:03:38.699Z,56.10
2018-08-12T11:06:06.847Z,56.80
2018-08-12T11:08:34.993Z,56.30
2018-08-12T11:11:03.120Z,56.70
2018-08-12T11:13:31.248Z,56.10
2018-08-12T11:15:59.395Z,55.60
2018-08-12T11:18:27.581Z,55.10
2018-08-12T11:20:55.723Z,54.90
2018-08-12T11:23:23.857Z,53.90
2018-08-12T11:25:52.050Z,54.10
2018-08-12T11:28:20.320Z,52.80
2018-08-12T11:30:48.494Z,54.60
2018-08-12T11:33:16.737Z,55.20
2018-08-12T11:35:44.867Z,54.50
2018-08-12T11:38:13.136Z,53.80
2018-08-12T11:40:41.281Z,53.90
2018-08-12T11:43:09.411Z,52.40
2018-08-12T11:45:37.560Z,53.30
2018-08-12T11:48:05.763Z,53.50
2018-08-12T11:50:33.884Z,53.20
2018-08-12T11:53:02.057Z,53.40
2018-08-12T11:55:30.261Z,53.10
2018-08-12T11:57:58.397Z,53.60
2018-08-12T12:00:26.541Z,51.80
2018-08-12T12:02:54.677Z,52.10
2018-08-12T12:05:22.819Z,51.60
2018-08-12T12:07:51.000Z,51.90
2018-08-12T12:10:21.294Z,52.20
2018-08-12T12:12:50.378Z,51.20
2018-08-12T12:15:18.706Z,51.40
2018-08-12T12:17:47.022Z,51.80
2018-08-12T12:20:15.977Z,51.10
2018-08-12T12:22:44.867Z,51.00
2018-08-12T12:25:14.281Z,50.30
2018-08-12T12:27:42.403Z,51.20
2018-08-12T12:30:14.169Z,50.10
2018-08-12T12:32:43.088Z,50.00
2018-08-12T12:35:11.235Z,50.50
2018-08-12T12:37:39.671Z,53.40
2018-08-12T12:40:09.368Z,49.30
2018-08-12T12:42:37.520Z,50.60
2018-08-12T12:45:07.268Z,51.00
2018-08-12T12:47:35.522Z,50.30
2018-08-12T12:50:05.133Z,50.20
2018-08-12T12:52:33.437Z,49.50
2018-08-12T12:55:09.042Z,49.80
2018-08-12T12:57:47.565Z,49.30
2018-08-12T13:00:20.149Z,49.40
2018-08-12T13:02:52.603Z,47.70
2018-08-12T13:05:24.170Z,48.90
2018-08-12T13:07:54.430Z,46.00
2018-08-12T13:10:26.802Z,46.20
2018-08-12T13:12:54.986Z,45.70
2018-08-12T13:15:23.109Z,45.50
2018-08-12T13:17:51.256Z,46.10
2018-08-12T13:20:20.516Z,47.30
2018-08-12T13:22:49.413Z,47.00
2018-08-12T13:25:19.007Z,47.70
2018-08-12T13:27:47.394Z,46.70
2018-08-12T13:30:16.603Z,46.70
2018-08-12T13:32:45.798Z,45.80
2018-08-12T13:35:13.983Z,46.00
2018-08-12T13:37:42.372Z,46.50
2018-08-12T13:40:12.515Z,46.30
2018-08-12T13:42:41.363Z,46.10
2018-08-12T13:45:10.792Z,44.20
2018-08-12T13:47:39.360Z,43.80
2018-08-12T13:50:10.240Z,43.50
2018-08-12T13:52:38.383Z,43.30
2018-08-12T13:55:06.758Z,43.70
2018-08-12T13:57:35.237Z,44.20
2018-08-12T14:00:17.131Z,45.20
2018-08-12T14:02:45.300Z,44.80
2018-08-12T14:05:15.000Z,45.90
2018-08-12T14:07:43.227Z,45.40
2018-08-12T14:10:17.409Z,44.80
2018-08-12T14:12:45.635Z,44.20
2018-08-12T14:15:15.796Z,44.80
2018-08-12T14:17:45.010Z,44.10
2018-08-12T14:20:14.770Z,43.50
2018-08-12T14:22:42.967Z,44.40
2018-08-12T14:25:11.194Z,45.80
2018-08-12T14:27:40.553Z,43.70
2018-08-12T14:30:13.583Z,42.80
2018-08-12T14:32:42.352Z,42.40
2018-08-12T14:35:11.431Z,42.70
2018-08-12T14:37:40.116Z,42.20
2018-08-12T14:40:10.207Z,41.80
2018-08-12T14:42:38.480Z,41.30
2018-08-12T14:45:09.340Z,41.70
2018-08-12T14:47:39.239Z,42.00
2018-08-12T14:50:10.524Z,42.50
2018-08-12T14:52:44.031Z,43.90
2018-08-12T14:55:14.591Z,42.40
2018-08-12T14:57:46.385Z,42.00
2018-08-12T15:00:22.990Z,41.70
2018-08-12T15:02:56.601Z,42.70
2018-08-12T15:05:28.789Z,42.60
2018-08-12T15:08:05.532Z,41.90
2018-08-12T15:10:39.837Z,42.20
2018-08-12T15:13:11.416Z,42.80
2018-08-12T15:15:42.798Z,42.20
2018-08-12T15:18:17.427Z,43.00
2018-08-12T15:20:51.549Z,42.50
2018-08-12T15:23:22.878Z,42.20
2018-08-12T15:25:53.428Z,42.70
2018-08-12T15:28:31.959Z,42.90
2018-08-12T15:31:06.070Z,43.40
2018-08-12T15:33:39.171Z,42.50
2018-08-12T15:36:14.011Z,43.10
2018-08-12T15:38:47.999Z,43.80
2018-08-12T15:41:21.691Z,43.20
2018-08-12T15:43:50.014Z,41.80
2018-08-12T15:46:18.228Z,42.30
2018-08-12T15:48:46.413Z,43.20
2018-08-12T15:51:14.687Z,42.40
2018-08-12T15:53:42.785Z,42.70
2018-08-12T15:56:10.971Z,43.00
2018-08-12T15:58:39.123Z,43.10
2018-08-12T16:01:07.416Z,42.50
2018-08-12T16:03:35.718Z,42.60
2018-08-12T16:06:03.904Z,45.60
2018-08-12T16:08:32.109Z,46.90
2018-08-12T16:11:00.258Z,48.80
2018-08-12T16:13:28.456Z,49.30
2018-08-12T16:15:56.760Z,49.20
2018-08-12T16:18:24.901Z,49.10
2018-08-12T16:20:53.089Z,48.20
2018-08-12T16:23:21.277Z,49.00
2018-08-12T16:25:49.393Z,48.70
2018-08-12T16:28:17.544Z,48.30
2018-08-12T16:30:45.678Z,49.50
2018-08-12T16:33:13.956Z,48.80
2018-08-12T16:35:42.104Z,50.80
2018-08-12T16:38:10.242Z,50.00
2018-08-12T16:40:38.741Z,49.50
2018-08-12T16:43:06.895Z,49.50
2018-08-12T16:45:35.016Z,49.80
2018-08-12T16:48:03.980Z,50.00
2018-08-12T16:50:32.252Z,50.10
2018-08-12T16:53:06.328Z,49.10
2018-08-12T16:55:35.676Z,50.40
2018-08-12T16:58:03.820Z,50.30
2018-08-12T17:00:32.001Z,50.20
2018-08-12T17:03:00.212Z,51.30
2018-08-12T17:05:28.340Z,50.50
2018-08-12T17:07:56.570Z,50.90
2018-08-12T17:10:24.711Z,51.10
2018-08-12T17:12:52.835Z,51.10
2018-08-12T17:15:22.151Z,50.40
2018-08-12T17:17:50.537Z,50.60
2018-08-12T17:20:20.564Z,51.00
2018-08-12T17:22:49.017Z,51.40
2018-08-12T17:25:17.185Z,51.50
2018-08-12T17:27:45.304Z,52.20
2018-08-12T17:30:14.776Z,51.80
2018-08-12T17:32:42.953Z,52.20
2018-08-12T17:35:12.943Z,51.90
2018-08-12T17:37:42.503Z,52.10
2018-08-12T17:40:12.623Z,52.40
2018-08-12T17:42:40.852Z,52.70
2018-08-12T17:45:10.392Z,53.30
2018-08-12T17:47:38.979Z,54.20
2018-08-12T17:50:08.268Z,55.10
2018-08-12T17:52:36.419Z,55.30
2018-08-12T17:55:05.064Z,56.00
2018-08-12T17:57:33.189Z,55.10
2018-08-12T18:00:01.509Z,56.10
2018-08-12T18:02:29.856Z,56.60
2018-08-12T18:04:58.097Z,56.70
2018-08-12T18:07:26.242Z,56.60
2018-08-12T18:09:54.383Z,57.20
2018-08-12T18:12:22.546Z,57.80
2018-08-12T18:14:50.835Z,58.00
2018-08-12T18:17:19.108Z,57.50
2018-08-12T18:19:47.378Z,57.90
2018-08-12T18:22:15.726Z,57.70
2018-08-12T18:24:43.855Z,58.90
2018-08-12T18:27:12.046Z,59.40
2018-08-12T18:29:40.234Z,59.50
2018-08-12T18:32:08.431Z,60.30
2018-08-12T18:34:36.621Z,61.30
2018-08-12T18:37:04.824Z,61.80
2018-08-12T18:39:33.026Z,63.10
2018-08-12T18:42:01.156Z,64.60
2018-08-12T18:44:29.318Z,65.10
2018-08-12T18:46:57.480Z,65.60
2018-08-12T18:49:25.623Z,66.70
2018-08-12T18:51:53.772Z,67.10
2018-08-12T18:54:21.960Z,68.10
2018-08-12T18:56:50.124Z,68.10
2018-08-12T18:59:18.255Z,68.00
2018-08-12T19:01:46.594Z,68.20
2018-08-12T19:04:14.720Z,67.90
2018-08-12T19:06:43.053Z,68.20
2018-08-12T19:09:11.623Z,67.70
2018-08-12T19:11:39.764Z,68.50
2018-08-12T19:14:08.126Z,68.60
2018-08-12T19:16:36.316Z,67.50
2018-08-12T19:19:04.633Z,67.50
2018-08-12T19:21:32.844Z,67.50
2018-08-12T19:24:01.072Z,67.60
2018-08-12T19:26:29.264Z,68.20
2018-08-12T19:28:57.622Z,68.60
2018-08-12T19:31:25.981Z,69.10
2018-08-12T19:33:54.591Z,69.80
2018-08-12T19:36:22.747Z,70.40
2018-08-12T19:38:50.978Z,69.50
2018-08-12T19:41:19.112Z,69.40
2018-08-12T19:43:47.236Z,69.60
2018-08-12T19:46:15.415Z,69.80
2018-08-12T19:48:43.600Z,69.90
2018-08-12T19:51:11.814Z,70.50
2018-08-12T19:53:39.969Z,69.40
2018-08-12T19:56:08.123Z,67.20
2018-08-12T19:58:36.296Z,67.60
2018-08-12T20:01:04.474Z,68.00
2018-08-12T20:03:32.909Z,68.80
2018-08-12T20:06:01.107Z,68.70
2018-08-12T20:08:29.263Z,68.80
2018-08-12T20:10:57.416Z,68.40
2018-08-12T20:13:25.553Z,67.50
2018-08-12T20:15:53.715Z,67.90
2018-08-12T20:18:22.098Z,68.10
2018-08-12T20:20:50.247Z,68.90
2018-08-12T20:23:18.403Z,69.60
2018-08-12T20:25:46.534Z,70.10
2018-08-12T20:28:14.805Z,70.80
2018-08-12T20:30:43.048Z,69.20
2018-08-12T20:33:11.178Z,69.90
2018-08-12T20:35:39.472Z,70.70
2018-08-12T20:38:07.710Z,70.20
2018-08-12T20:40:35.998Z,70.20
2018-08-12T20:43:04.175Z,70.30
2018-08-12T20:45:32.560Z,70.00
2018-08-12T20:48:07.380Z,70.20
2018-08-12T20:50:35.565Z,70.60
2018-08-12T20:53:03.992Z,70.90
2018-08-12T20:55:32.455Z,70.90
2018-08-12T20:58:06.992Z,71.30
2018-08-12T21:00:35.132Z,71.20
2018-08-12T21:03:03.817Z,72.10
2018-08-12T21:05:32.077Z,71.10
2018-08-12T21:08:01.436Z,71.50
2018-08-12T21:10:30.032Z,71.60
2018-08-12T21:12:58.180Z,71.90
2018-08-12T21:15:26.492Z,72.30
2018-08-12T21:17:54.619Z,73.10
2018-08-12T21:20:22.782Z,72.10
2018-08-12T21:22:51.043Z,72.60
2018-08-12T21:25:19.435Z,72.90
2018-08-12T21:27:47.666Z,73.10
2018-08-12T21:30:15.927Z,73.40
2018-08-12T21:32:44.358Z,73.90
2018-08-12T21:35:12.508Z,73.90
2018-08-12T21:37:41.364Z,74.00
2018-08-12T21:40:10.269Z,74.00
2018-08-12T21:42:38.418Z,74.20
2018-08-12T21:45:06.560Z,75.00
2018-08-12T21:47:35.016Z,75.10
2018-08-12T21:50:03.324Z,74.80
2018-08-12T21:52:31.630Z,75.20
2018-08-12T21:54:59.800Z,75.10
2018-08-12T21:57:28.277Z,74.90
2018-08-12T22:02:55.385Z,75.20
2018-08-12T22:05:23.664Z,76.00
2018-08-12T22:07:51.789Z,76.70
2018-08-12T22:10:19.915Z,76.50
2018-08-12T22:12:48.083Z,76.50
2018-08-12T22:15:16.288Z,76.00
2018-08-12T22:17:44.417Z,75.80
2018-08-12T22:20:12.563Z,75.70
2018-08-12T22:22:40.696Z,75.40
2018-08-12T22:25:08.873Z,75.90
2018-08-12T22:27:37.003Z,76.30
2018-08-12T22:30:05.883Z,76.10
2018-08-12T22:32:34.025Z,75.40
2018-08-12T22:35:02.170Z,76.00
2018-08-12T22:37:30.336Z,76.30
2018-08-12T22:39:58.478Z,76.70
2018-08-12T22:42:26.603Z,76.80
2018-08-12T22:44:54.757Z,77.30
2018-08-12T22:47:22.899Z,77.20
2018-08-12T22:49:51.036Z,77.40
2018-08-12T22:52:19.259Z,77.50
2018-08-12T22:54:47.431Z,77.80
2018-08-12T22:57:15.600Z,79.00
2018-08-12T22:59:43.715Z,79.30
2018-08-12T23:02:11.863Z,78.90
2018-08-12T23:04:40.018Z,79.20
2018-08-12T23:07:08.179Z,78.90
2018-08-12T23:09:36.320Z,78.70
2018-08-12T23:12:04.456Z,78.80
2018-08-12T23:14:32.684Z,80.00
2018-08-12T23:17:01.891Z,79.10
2018-08-12T23:19:30.363Z,78.90
2018-08-12T23:21:58.687Z,79.20
2018-08-12T23:24:26.843Z,79.80
2018-08-12T23:26:55.015Z,80.30
2018-08-12T23:29:23.149Z,80.50
2018-08-12T23:31:51.359Z,80.40
2018-08-12T23:34:19.551Z,80.40
2018-08-12T23:36:47.672Z,80.60
2018-08-12T23:39:15.845Z,80.40
2018-08-12T23:41:43.977Z,80.50
2018-08-12T23:44:12.116Z,80.70
2018-08-12T23:46:40.252Z,80.20
2018-08-12T23:49:08.477Z,80.00
2018-08-12T23:51:36.612Z,80.10
2018-08-12T23:54:04.764Z,80.20
2018-08-12T23:56:32.941Z,80.00
2018-08-12T23:59:01.096Z,80.20
